Time;durP1;ratioP1;P1;durP2;ratioP2;P2;SDS_P1;SDS_P2;PMS_P1;PMS_P2;Temp;Humidity;BMP_temperature;BMP_pressure;BME280_temperature;BME280_humidity;BME280_pressure;Samples;Min_cycle;Max_cycle;Signal;HPM_P1;HPM_P2
2021/08/26 00:00:17;;;;;;;38.45;31.10;;;;;;;8.20;100.00;98503.75;2088773;28;20230;-74
2021/08/26 00:05:43;;;;;;;37.17;29.67;;;;;;;8.19;100.00;98502.16;2089453;28;20281;-74
2021/08/26 00:06:39;;;;;;;40.47;29.92;;;;;;;8.09;100.00;98494.38;2088818;28;20242;-74
2021/08/26 00:07:40;;;;;;;39.47;30.83;;;;;;;8.06;100.00;98489.63;2089325;28;20234;-74
2021/08/26 00:08:41;;;;;;;40.37;30.97;;;;;;;8.05;100.00;98490.72;2089517;28;20222;-74
2021/08/26 00:09:42;;;;;;;41.58;31.63;;;;;;;8.03;100.00;98496.34;2089552;28;20666;-74
2021/08/26 00:10:44;;;;;;;37.83;30.07;;;;;;;8.00;100.00;98493.50;2089720;28;20230;-74
2021/08/26 00:11:46;;;;;;;35.92;29.38;;;;;;;7.98;100.00;98493.75;2089446;28;20226;-74
2021/08/26 00:12:48;;;;;;;39.47;30.48;;;;;;;7.93;100.00;98485.91;2088881;28;20277;-74
2021/08/26 00:13:50;;;;;;;42.53;32.38;;;;;;;7.93;100.00;98486.69;2088726;28;20215;-74
2021/08/26 00:14:51;;;;;;;41.13;31.45;;;;;;;7.90;100.00;98487.25;2089300;28;20226;-74
2021/08/26 00:15:55;;;;;;;43.17;32.65;;;;;;;7.91;100.00;98490.72;2089053;28;20313;-74
2021/08/26 00:16:57;;;;;;;37.70;30.88;;;;;;;7.89;100.00;98483.03;2089332;28;20254;-74
2021/08/26 00:17:58;;;;;;;38.63;31.88;;;;;;;7.89;100.00;98483.03;2088636;28;20665;-74
2021/08/26 00:19:01;;;;;;;42.83;31.95;;;;;;;7.86;100.00;98480.97;2088709;28;20214;-74
2021/08/26 00:20:01;;;;;;;39.90;31.90;;;;;;;7.88;100.00;98478.78;2089333;28;20231;-74
2021/08/26 00:21:03;;;;;;;39.37;32.37;;;;;;;7.86;100.00;98474.84;2089404;28;20222;-73
2021/08/26 00:22:04;;;;;;;40.55;31.13;;;;;;;7.85;100.00;98479.38;2088639;28;20365;-73
2021/08/26 00:23:05;;;;;;;40.43;32.67;;;;;;;7.85;100.00;98479.38;2088736;28;20223;-74
2021/08/26 00:24:07;;;;;;;41.80;32.75;;;;;;;7.84;100.00;98477.81;2089357;28;20218;-74
2021/08/26 00:25:09;;;;;;;38.70;31.70;;;;;;;7.84;100.00;98472.50;2089035;28;20689;-74
2021/08/26 00:26:11;;;;;;;43.05;32.65;;;;;;;7.84;100.00;98471.72;2089434;28;20578;-74
2021/08/26 00:27:12;;;;;;;40.22;32.20;;;;;;;7.81;100.00;98473.06;2089314;28;20762;-74
2021/08/26 00:28:13;;;;;;;38.47;32.63;;;;;;;7.80;100.00;98471.50;2088375;28;20641;-75
2021/08/26 00:29:14;;;;;;;37.65;30.45;;;;;;;7.80;100.00;98460.09;2088644;28;20258;-74
2021/08/26 00:30:16;;;;;;;41.80;32.77;;;;;;;7.83;100.00;98470.94;2089276;28;20230;-74
2021/08/26 00:31:16;;;;;;;44.55;32.70;;;;;;;7.83;100.00;98470.13;2088145;28;21198;-73
2021/08/26 00:32:18;;;;;;;37.93;31.30;;;;;;;7.82;100.00;98458.72;2088639;28;20226;-74
2021/08/26 00:33:20;;;;;;;37.08;31.45;;;;;;;7.84;100.00;98467.19;2088425;28;20218;-74
2021/08/26 00:34:22;;;;;;;40.60;32.30;;;;;;;7.87;100.00;98463.16;2080560;28;20250;-74
2021/08/26 00:35:23;;;;;;;36.10;31.65;;;;;;;7.87;100.00;98466.59;2088048;28;20615;-74
2021/08/26 00:36:24;;;;;;;39.22;31.40;;;;;;;7.89;100.00;98460.97;2089319;28;20231;-73
2021/08/26 00:37:26;;;;;;;38.00;32.77;;;;;;;7.91;100.00;98461.50;2089205;28;20234;-74
2021/08/26 00:38:27;;;;;;;39.38;31.80;;;;;;;7.92;100.00;98469.16;2089267;28;20408;-73
2021/08/26 00:39:28;;;;;;;41.00;32.95;;;;;;;7.91;100.00;98459.63;2088341;28;20265;-74
2021/08/26 00:40:30;;;;;;;41.30;31.20;;;;;;;7.92;100.00;98453.22;2088500;28;20806;-74
2021/08/26 00:41:30;;;;;;;34.40;30.10;;;;;;;7.92;100.00;98452.44;2089144;28;20284;-74
2021/08/26 00:42:32;;;;;;;42.73;32.50;;;;;;;7.93;100.00;98449.50;2089098;28;20227;-74
2021/08/26 00:43:33;;;;;;;40.58;31.38;;;;;;;7.93;100.00;98451.38;2088575;28;20297;-73
2021/08/26 00:44:36;;;;;;;38.93;31.10;;;;;;;7.94;100.00;98444.97;2088696;28;20724;-74
2021/08/26 00:45:37;;;;;;;36.78;32.15;;;;;;;7.93;100.00;98443.41;2088143;28;20681;-73
2021/08/26 00:46:40;;;;;;;38.45;30.88;;;;;;;7.91;100.00;98445.56;2088429;28;20231;-73
2021/08/26 00:47:44;;;;;;;36.00;30.98;;;;;;;7.92;100.00;98442.63;2088431;28;20277;-73
2021/08/26 00:48:47;;;;;;;41.58;31.08;;;;;;;7.92;100.00;98445.28;2089137;28;20219;-73
2021/08/26 00:49:52;;;;;;;38.13;31.02;;;;;;;7.91;100.00;98441.03;2089113;28;20223;-74
2021/08/26 00:50:55;;;;;;;40.22;30.58;;;;;;;7.92;100.00;98439.97;2088754;28;20684;-73
2021/08/26 00:51:56;;;;;;;37.13;29.63;;;;;;;7.91;100.00;98435.72;2088453;28;20684;-72
2021/08/26 00:52:58;;;;;;;36.88;30.17;;;;;;;7.93;100.00;98438.09;2080174;28;20227;-75
2021/08/26 00:53:58;;;;;;;36.22;30.60;;;;;;;7.91;100.00;98438.38;2088286;28;20230;-75
2021/08/26 00:55:00;;;;;;;37.87;30.93;;;;;;;7.91;100.00;98438.38;2088359;28;20226;-75
2021/08/26 00:56:00;;;;;;;35.00;29.50;;;;;;;7.92;100.00;98437.31;2088866;28;20275;-75
2021/08/26 00:57:02;;;;;;;37.50;29.27;;;;;;;7.94;100.00;98435.13;2088252;28;20249;-75
2021/08/26 00:58:03;;;;;;;34.10;29.30;;;;;;;8.00;100.00;98435.06;2080053;28;20239;-75
2021/08/26 00:59:06;;;;;;;36.20;29.47;;;;;;;8.05;100.00;98429.63;2088387;28;20234;-76
2021/08/26 01:00:09;;;;;;;35.15;27.90;;;;;;;8.13;100.00;98431.59;2088651;28;20219;-75
2021/08/26 01:01:11;;;;;;;32.67;27.38;;;;;;;8.16;100.00;98436.31;2088990;28;20684;-75
2021/08/26 01:02:17;;;;;;;33.13;28.05;;;;;;;8.20;100.00;98432.00;2089019;28;20230;-74
2021/08/26 01:03:24;;;;;;;35.00;28.05;;;;;;;8.24;100.00;98432.97;2088962;28;20250;-75
2021/08/26 01:04:30;;;;;;;34.72;28.60;;;;;;;8.25;100.00;98423.91;2087777;28;20344;-75
2021/08/26 01:05:37;;;;;;;35.20;28.17;;;;;;;8.24;100.00;98432.97;2088391;28;20215;-75
2021/08/26 01:06:43;;;;;;;37.40;29.88;;;;;;;8.21;100.00;98422.94;2088571;28;20677;-73
2021/08/26 01:07:48;;;;;;;35.92;29.70;;;;;;;8.15;100.00;98427.56;2088976;28;20225;-75
2021/08/26 01:08:55;;;;;;;36.30;30.30;;;;;;;8.09;100.00;98425.31;2089043;28;20218;-75
2021/08/26 01:10:06;;;;;;;37.75;29.55;;;;;;;8.03;100.00;98421.16;2088614;28;20222;-75
2021/08/26 01:11:07;;;;;;;38.40;31.20;;;;;;;7.98;100.00;98414.06;2088508;28;20667;-75
2021/08/26 01:12:09;;;;;;;38.42;30.52;;;;;;;7.97;100.00;98427.66;2088900;28;20231;-75
2021/08/26 01:13:11;;;;;;;35.65;30.33;;;;;;;7.91;100.00;98421.66;2088763;28;20621;-75
2021/08/26 01:14:13;;;;;;;38.17;30.80;;;;;;;7.88;100.00;98417.69;2088881;28;20238;-75
2021/08/26 01:15:13;;;;;;;35.92;29.65;;;;;;;7.84;100.00;98422.03;2088924;28;20223;-74
2021/08/26 01:16:16;;;;;;;37.50;30.33;;;;;;;7.82;100.00;98418.13;2089048;28;20219;-75
2021/08/26 01:17:18;;;;;;;34.55;30.58;;;;;;;7.76;100.00;98412.09;2088787;28;20306;-73
2021/08/26 01:18:20;;;;;;;37.78;30.65;;;;;;;7.76;100.00;98414.75;2088967;28;20222;-75
2021/08/26 01:19:20;;;;;;;37.38;29.80;;;;;;;7.74;100.00;98398.31;2088002;28;20729;-73
2021/08/26 01:20:22;;;;;;;36.83;30.93;;;;;;;7.72;100.00;98399.69;2088210;28;20222;-73
2021/08/26 01:21:24;;;;;;;38.22;30.27;;;;;;;7.71;100.00;98400.75;2088608;28;20313;-74
2021/08/26 01:22:28;;;;;;;37.08;30.10;;;;;;;7.67;100.00;98403.22;2088785;28;20241;-73
2021/08/26 01:23:32;;;;;;;36.75;29.83;;;;;;;7.64;100.00;98394.00;2089069;28;20305;-73
2021/08/26 01:24:34;;;;;;;39.78;30.15;;;;;;;7.63;100.00;98397.69;2088948;28;20219;-73
2021/08/26 01:25:41;;;;;;;40.55;31.83;;;;;;;7.65;100.00;98405.41;2088829;28;20576;-74
2021/08/26 01:26:45;;;;;;;41.10;30.80;;;;;;;7.61;100.00;98399.88;2087372;28;20305;-74
2021/08/26 01:27:50;;;;;;;45.38;31.77;;;;;;;7.62;100.00;98403.31;2080093;28;20246;-73
2021/08/26 01:28:52;;;;;;;41.10;30.77;;;;;;;7.60;100.00;98400.16;2088239;28;20224;-74
2021/08/26 01:29:53;;;;;;;38.88;30.55;;;;;;;7.58;100.00;98402.34;2088393;28;20309;-73
2021/08/26 01:30:54;;;;;;;40.40;30.83;;;;;;;7.57;100.00;98403.41;2087875;28;20234;-73
2021/08/26 01:31:55;;;;;;;38.13;30.98;;;;;;;7.58;100.00;98404.97;2079833;28;20223;-73
2021/08/26 01:32:59;;;;;;;42.80;31.20;;;;;;;7.56;100.00;98404.50;2087981;28;20231;-74
2021/08/26 01:34:00;;;;;;;39.53;31.52;;;;;;;7.52;100.00;98406.94;2088868;28;20226;-74
2021/08/26 01:35:03;;;;;;;40.88;31.75;;;;;;;7.54;100.00;98409.28;2088660;28;20302;-73
2021/08/26 01:36:05;;;;;;;41.08;32.83;;;;;;;7.54;100.00;98406.63;2088582;28;20313;-74
2021/08/26 01:37:06;;;;;;;40.67;32.30;;;;;;;7.53;100.00;98413.81;2088845;28;20223;-74
2021/08/26 01:38:07;;;;;;;45.20;32.30;;;;;;;7.53;100.00;98408.50;2088395;28;20309;-73
2021/08/26 01:39:10;;;;;;;40.87;31.90;;;;;;;7.54;100.00;98404.75;2087892;28;20227;-73
2021/08/26 01:40:11;;;;;;;41.58;32.92;;;;;;;7.56;100.00;98404.50;2088031;28;20309;-73
2021/08/26 01:41:15;;;;;;;37.22;31.55;;;;;;;7.55;100.00;98405.56;2088701;28;20234;-73
2021/08/26 01:42:16;;;;;;;42.55;32.40;;;;;;;7.54;100.00;98398.66;2088824;28;20226;-74
2021/08/26 01:43:19;;;;;;;41.30;31.73;;;;;;;7.55;100.00;98408.19;2088309;28;20218;-74
2021/08/26 01:44:21;;;;;;;39.58;31.15;;;;;;;7.54;100.00;98396.00;2088000;28;20285;-74
2021/08/26 01:45:22;;;;;;;41.65;31.50;;;;;;;7.54;100.00;98404.75;2087773;28;20226;-72
2021/08/26 01:46:23;;;;;;;40.88;31.38;;;;;;;7.55;100.00;98401.03;2088579;28;20356;-73
2021/08/26 01:47:25;;;;;;;39.97;32.07;;;;;;;7.54;100.00;98398.66;2088639;28;20234;-73
2021/08/26 01:48:25;;;;;;;38.88;32.72;;;;;;;7.54;100.00;98394.16;2088531;28;20247;-74
2021/08/26 01:49:27;;;;;;;36.93;29.80;;;;;;;7.55;100.00;98400.25;2088563;28;20237;-73
2021/08/26 01:50:28;;;;;;;39.78;31.08;;;;;;;7.54;100.00;98401.31;2088663;28;20276;-74
2021/08/26 01:51:30;;;;;;;43.67;32.53;;;;;;;7.52;100.00;98398.97;2088605;28;20215;-74
2021/08/26 01:52:31;;;;;;;41.40;30.90;;;;;;;7.54;100.00;98393.34;2088792;28;20230;-74
2021/08/26 01:53:32;;;;;;;39.57;31.13;;;;;;;7.56;100.00;98396.53;2088151;28;20704;-74
2021/08/26 01:54:33;;;;;;;41.28;31.40;;;;;;;7.55;100.00;98397.59;2088061;28;20697;-73
2021/08/26 01:55:35;;;;;;;37.50;31.33;;;;;;;7.58;100.00;98394.38;2088367;28;20613;-74
2021/08/26 01:56:37;;;;;;;41.42;32.70;;;;;;;7.56;100.00;98384.03;2088631;28;20253;-74
2021/08/26 01:57:39;;;;;;;40.42;32.35;;;;;;;7.58;100.00;98389.84;2088315;28;20242;-73
2021/08/26 01:58:40;;;;;;;42.42;31.80;;;;;;;7.58;100.00;98386.41;2088581;28;20618;-73
2021/08/26 01:59:41;;;;;;;37.97;31.17;;;;;;;7.58;100.00;98386.41;2088733;28;20245;-74
2021/08/26 02:00:43;;;;;;;38.20;30.90;;;;;;;7.59;100.00;98387.97;2087877;28;20223;-74
2021/08/26 02:01:44;;;;;;;42.30;32.03;;;;;;;7.60;100.00;98384.25;2087815;28;20218;-74
2021/08/26 02:02:45;;;;;;;41.45;31.85;;;;;;;7.60;100.00;98386.88;2087926;28;20234;-74
2021/08/26 02:03:46;;;;;;;39.13;31.47;;;;;;;7.60;100.00;98385.03;2087979;28;20222;-74
2021/08/26 02:04:47;;;;;;;38.00;32.13;;;;;;;7.61;100.00;98378.63;2079954;28;20223;-74
2021/08/26 02:05:49;;;;;;;42.77;32.90;;;;;;;7.61;100.00;98377.84;2088244;28;20264;-74
2021/08/26 02:06:49;;;;;;;38.83;31.88;;;;;;;7.62;100.00;98374.88;2087944;28;20310;-74
2021/08/26 02:07:53;;;;;;;44.63;33.67;;;;;;;7.63;100.00;98373.81;2088695;28;20225;-74
2021/08/26 02:08:53;;;;;;;40.22;32.25;;;;;;;7.66;100.00;98380.41;2088316;28;20250;-74
2021/08/26 02:09:55;;;;;;;39.20;32.20;;;;;;;7.68;100.00;98372.16;2088592;28;20229;-73
2021/08/26 02:10:55;;;;;;;35.67;31.00;;;;;;;7.66;100.00;98375.13;2088574;28;20218;-74
2021/08/26 02:11:58;;;;;;;39.03;31.37;;;;;;;7.69;100.00;98369.19;2088686;28;20233;-74
2021/08/26 02:12:59;;;;;;;38.72;32.13;;;;;;;7.70;100.00;98359.38;2087993;28;20223;-74
2021/08/26 02:14:00;;;;;;;43.07;32.13;;;;;;;7.69;100.00;98353.28;2088010;28;20735;-74
2021/08/26 02:15:01;;;;;;;38.03;30.73;;;;;;;7.70;100.00;98352.19;2088640;28;20276;-74
2021/08/26 02:16:03;;;;;;;41.47;31.73;;;;;;;7.74;100.00;98349.75;2088676;28;20253;-74
2021/08/26 02:17:03;;;;;;;38.75;30.75;;;;;;;7.74;100.00;98355.84;2088708;28;20313;-73
2021/08/26 02:18:05;;;;;;;38.23;30.03;;;;;;;7.77;100.00;98344.63;2087647;28;20237;-74
2021/08/26 02:19:05;;;;;;;38.72;30.73;;;;;;;7.80;100.00;98353.88;2087917;28;20248;-74
2021/08/26 02:20:08;;;;;;;40.23;31.90;;;;;;;7.80;100.00;98338.72;2088708;28;20229;-74
2021/08/26 02:21:09;;;;;;;42.17;31.98;;;;;;;7.82;100.00;98351.72;2088060;28;20234;-73
2021/08/26 02:22:10;;;;;;;37.03;31.37;;;;;;;7.81;100.00;98345.59;2088094;28;20227;-74
2021/08/26 02:23:11;;;;;;;37.45;30.60;;;;;;;7.82;100.00;98346.41;2087846;28;20296;-74
2021/08/26 02:24:12;;;;;;;38.57;30.90;;;;;;;7.82;100.00;98341.88;2087682;28;20250;-74
2021/08/26 02:25:13;;;;;;;36.60;30.35;;;;;;;7.85;100.00;98349.25;2087765;28;20234;-74
2021/08/26 02:26:15;;;;;;;41.40;31.03;;;;;;;7.85;100.00;98338.63;2088580;28;20226;-74
2021/08/26 02:27:17;;;;;;;34.22;29.92;;;;;;;7.88;100.00;98345.22;2088489;28;20309;-74
2021/08/26 02:28:18;;;;;;;38.42;30.73;;;;;;;7.88;100.00;98343.34;2088510;28;20218;-73
2021/08/26 02:29:19;;;;;;;40.20;31.52;;;;;;;7.90;100.00;98341.16;2088592;28;20283;-74
2021/08/26 02:30:20;;;;;;;40.27;31.77;;;;;;;7.93;100.00;98343.25;2087780;28;20226;-73
2021/08/26 02:31:21;;;;;;;38.25;31.42;;;;;;;7.95;100.00;98327.00;2087880;28;20654;-74
2021/08/26 02:32:23;;;;;;;40.23;30.90;;;;;;;7.99;100.00;98332.50;2087449;28;20227;-74
2021/08/26 02:33:23;;;;;;;38.70;31.58;;;;;;;8.00;100.00;98332.25;2087741;28;20317;-74
2021/08/26 02:34:25;;;;;;;40.63;31.87;;;;;;;8.03;100.00;98325.53;2088607;28;20288;-73
2021/08/26 02:35:25;;;;;;;41.63;32.30;;;;;;;8.04;100.00;98325.22;2088489;28;20246;-74
2021/08/26 02:36:27;;;;;;;45.33;31.23;;;;;;;8.07;100.00;98321.19;2088499;28;20225;-74
2021/08/26 02:37:27;;;;;;;38.47;31.20;;;;;;;8.12;100.00;98329.06;2087641;28;20618;-74
2021/08/26 02:38:29;;;;;;;38.27;30.70;;;;;;;8.12;100.00;98324.53;2080012;28;20230;-74
2021/08/26 02:39:30;;;;;;;39.55;30.75;;;;;;;8.15;100.00;98329.25;2089394;28;20244;-74
2021/08/26 02:40:31;;;;;;;38.93;31.50;;;;;;;8.20;100.00;98325.72;2089875;28;20676;-74
2021/08/26 02:41:32;;;;;;;39.22;31.02;;;;;;;8.22;100.00;98323.53;2089364;28;20246;-74
2021/08/26 02:42:35;;;;;;;40.37;30.80;;;;;;;8.25;100.00;98322.16;2090160;28;20230;-74
2021/08/26 02:43:35;;;;;;;39.20;31.00;;;;;;;8.27;100.00;98323.44;2090108;28;20238;-73
2021/08/26 02:44:37;;;;;;;37.60;31.13;;;;;;;8.29;100.00;98315.94;2089243;28;20229;-74
2021/08/26 02:45:38;;;;;;;39.53;31.48;;;;;;;8.33;100.00;98324.88;2080771;28;20235;-74
2021/08/26 02:46:39;;;;;;;41.33;32.57;;;;;;;8.35;100.00;98314.78;2089348;28;20226;-74
2021/08/26 02:47:40;;;;;;;46.50;32.22;;;;;;;8.37;100.00;98323.25;2090112;28;20738;-74
2021/08/26 02:48:42;;;;;;;40.30;31.40;;;;;;;8.40;100.00;98314.66;2089168;28;20665;-74
2021/08/26 02:49:42;;;;;;;41.80;31.15;;;;;;;8.42;100.00;98319.66;2089307;28;20820;-74
2021/08/26 02:50:44;;;;;;;38.07;30.57;;;;;;;8.43;100.00;98313.31;2090292;28;20572;-74
2021/08/26 02:51:45;;;;;;;39.80;31.38;;;;;;;8.49;100.00;98320.06;2090047;28;20627;-74
2021/08/26 02:52:46;;;;;;;40.87;30.53;;;;;;;8.52;100.00;98313.38;2089955;28;20249;-74
2021/08/26 02:53:47;;;;;;;37.58;30.90;;;;;;;8.52;100.00;98310.72;2089200;28;20231;-74
2021/08/26 02:54:49;;;;;;;45.13;31.93;;;;;;;8.54;100.00;98311.97;2081000;28;20269;-74
2021/08/26 02:55:49;;;;;;;38.92;29.73;;;;;;;8.59;100.00;98311.84;2089171;28;20529;-74
2021/08/26 02:56:51;;;;;;;40.27;30.93;;;;;;;8.60;100.00;98308.13;2089408;28;20229;-74
2021/08/26 02:57:53;;;;;;;38.38;30.23;;;;;;;8.61;100.00;98303.59;2088881;28;20233;-74
2021/08/26 02:58:54;;;;;;;36.50;31.05;;;;;;;8.64;100.00;98310.94;2089194;28;20222;-74
2021/08/26 02:59:56;;;;;;;36.90;29.55;;;;;;;8.67;100.00;98310.34;2089216;28;20713;-74
2021/08/26 03:00:57;;;;;;;33.80;28.33;;;;;;;8.70;100.00;98307.09;2089968;28;20295;-74
2021/08/26 03:01:59;;;;;;;34.20;28.23;;;;;;;8.73;100.00;98299.28;2089074;28;20223;-73
2021/08/26 03:02:59;;;;;;;29.13;26.15;;;;;;;8.78;100.00;98309.03;2089046;28;20234;-75
2021/08/26 03:04:01;;;;;;;32.33;27.17;;;;;;;8.84;100.00;98317.66;2089116;28;20227;-74
2021/08/26 03:05:02;;;;;;;34.55;28.15;;;;;;;8.87;100.00;98307.22;2089151;28;20250;-74
2021/08/26 03:06:04;;;;;;;34.53;27.77;;;;;;;8.89;100.00;98305.03;2089909;28;20219;-74
2021/08/26 03:07:05;;;;;;;32.53;28.25;;;;;;;8.93;100.00;98310.53;2088988;28;20285;-74
2021/08/26 03:08:06;;;;;;;32.87;28.47;;;;;;;8.93;100.00;98306.00;2089162;28;20281;-74
2021/08/26 03:09:07;;;;;;;33.83;27.63;;;;;;;8.96;100.00;98304.63;2089084;28;20310;-74
2021/08/26 03:10:09;;;;;;;33.13;27.03;;;;;;;8.98;100.00;98307.75;2089154;28;20267;-74
2021/08/26 03:11:10;;;;;;;37.15;27.98;;;;;;;8.98;100.00;98305.88;2089939;28;20321;-73
2021/08/26 03:12:12;;;;;;;34.27;27.80;;;;;;;8.98;100.00;98303.22;2089250;28;20232;-74
2021/08/26 03:13:13;;;;;;;36.03;27.83;;;;;;;9.01;100.00;98302.59;2089199;28;20229;-73
2021/08/26 03:14:15;;;;;;;31.58;26.48;;;;;;;9.04;100.00;98301.22;2089796;28;20226;-74
2021/08/26 03:15:16;;;;;;;30.48;26.27;;;;;;;9.05;100.00;98302.78;2089832;28;20241;-74
2021/08/26 03:16:17;;;;;;;32.67;26.57;;;;;;;9.09;100.00;98303.75;2089910;28;20221;-74
2021/08/26 03:17:18;;;;;;;30.60;25.55;;;;;;;9.10;100.00;98296.53;2089932;28;20297;-74
2021/08/26 03:18:19;;;;;;;32.73;26.17;;;;;;;9.15;100.00;98307.06;2089968;28;20227;-74
2021/08/26 03:19:20;;;;;;;31.65;26.35;;;;;;;9.14;100.00;98295.66;2089723;28;20261;-73
2021/08/26 03:20:22;;;;;;;28.77;25.23;;;;;;;9.16;100.00;98298.00;2089195;28;20227;-75
2021/08/26 03:21:22;;;;;;;28.65;24.45;;;;;;;9.18;100.00;98291.28;2080308;28;20223;-74
2021/08/26 03:22:24;;;;;;;30.67;25.20;;;;;;;9.19;100.00;98290.19;2088932;28;20234;-74
2021/08/26 03:23:25;;;;;;;28.55;24.33;;;;;;;9.19;100.00;98292.84;2089674;28;20317;-74
2021/08/26 03:24:26;;;;;;;30.83;25.60;;;;;;;9.21;100.00;98284.53;2089137;28;20223;-73
2021/08/26 03:25:27;;;;;;;31.45;26.45;;;;;;;9.21;100.00;98284.53;2088965;28;20344;-74
2021/08/26 03:26:29;;;;;;;31.13;26.90;;;;;;;9.25;100.00;98283.63;2089024;28;20219;-74
2021/08/26 03:27:29;;;;;;;34.60;27.35;;;;;;;9.24;100.00;98282.06;2089811;28;20253;-74
2021/08/26 03:28:32;;;;;;;30.67;27.37;;;;;;;9.27;100.00;98281.44;2088863;28;20215;-74
2021/08/26 03:29:33;;;;;;;31.20;26.70;;;;;;;9.28;100.00;98284.91;2080724;28;20241;-74
2021/08/26 03:30:35;;;;;;;37.47;27.40;;;;;;;9.28;100.00;98274.25;2088951;28;20353;-74
2021/08/26 03:31:35;;;;;;;31.60;27.02;;;;;;;9.27;100.00;98273.47;2088934;28;20297;-74
2021/08/26 03:32:37;;;;;;;33.30;27.33;;;;;;;9.29;100.00;98273.16;2080713;28;20681;-74
2021/08/26 03:33:38;;;;;;;32.00;26.92;;;;;;;9.29;100.00;98276.59;2088660;28;20708;-73
2021/08/26 03:34:39;;;;;;;31.23;26.87;;;;;;;9.29;100.00;98276.59;2089722;28;20607;-74
2021/08/26 03:35:40;;;;;;;29.83;26.55;;;;;;;9.30;100.00;98277.41;2088869;28;20325;-73
2021/08/26 03:36:42;;;;;;;33.57;26.13;;;;;;;9.30;100.00;98275.53;2089066;28;20353;-74
2021/08/26 03:37:43;;;;;;;32.47;27.38;;;;;;;9.29;100.00;98276.59;2089770;28;20243;-74
2021/08/26 03:38:44;;;;;;;28.57;25.43;;;;;;;9.30;100.00;98272.09;2089151;28;20233;-74
2021/08/26 03:39:45;;;;;;;31.80;26.23;;;;;;;9.34;100.00;98283.69;2080934;28;20231;-73
2021/08/26 03:40:47;;;;;;;30.77;26.00;;;;;;;9.34;100.00;98275.69;2089143;28;20740;-73
2021/08/26 03:41:47;;;;;;;36.55;28.02;;;;;;;9.35;100.00;98279.91;2089580;28;20306;-74
2021/08/26 03:42:49;;;;;;;29.53;26.20;;;;;;;9.36;100.00;98276.16;2089679;28;20239;-75
2021/08/26 03:43:51;;;;;;;31.95;27.40;;;;;;;9.36;100.00;98276.16;2089469;28;20219;-74
2021/08/26 03:44:52;;;;;;;30.08;26.77;;;;;;;9.38;100.00;98275.84;2089250;28;20644;-74
2021/08/26 03:45:53;;;;;;;37.67;27.67;;;;;;;9.39;100.00;98274.78;2088847;28;20230;-74
2021/08/26 03:46:54;;;;;;;30.90;27.60;;;;;;;9.41;100.00;98273.38;2088906;28;20233;-74
2021/08/26 03:47:56;;;;;;;32.35;27.65;;;;;;;9.40;100.00;98271.03;2089699;28;20230;-74
2021/08/26 03:48:57;;;;;;;30.75;27.45;;;;;;;9.42;100.00;98266.97;2089444;28;20277;-74
2021/08/26 03:49:58;;;;;;;30.53;27.33;;;;;;;9.45;100.00;98273.53;2089496;28;20222;-74
2021/08/26 03:51:00;;;;;;;30.63;27.42;;;;;;;9.44;100.00;98274.63;2089042;28;20305;-74
2021/08/26 03:52:02;;;;;;;41.15;27.65;;;;;;;9.45;100.00;98274.31;2088959;28;20223;-74
2021/08/26 03:53:03;;;;;;;31.15;27.88;;;;;;;9.44;100.00;98270.09;2089099;28;20352;-74
2021/08/26 03:54:04;;;;;;;32.10;27.57;;;;;;;9.45;100.00;98276.19;2080593;28;20219;-74
2021/08/26 03:55:06;;;;;;;33.22;26.52;;;;;;;9.46;100.00;98275.09;2088959;28;20376;-74
2021/08/26 03:56:08;;;;;;;32.15;26.42;;;;;;;9.46;100.00;98270.56;2089125;28;20658;-74
2021/08/26 03:57:09;;;;;;;31.00;27.40;;;;;;;9.47;100.00;98279.34;2089407;28;20230;-74
2021/08/26 03:58:10;;;;;;;33.03;27.20;;;;;;;9.48;100.00;98273.72;2089452;28;20226;-73
2021/08/26 03:59:12;;;;;;;33.00;27.55;;;;;;;9.49;100.00;98277.16;2089617;28;20234;-74
2021/08/26 04:00:14;;;;;;;32.90;26.83;;;;;;;9.50;100.00;98274.19;2088641;28;20219;-74
2021/08/26 04:01:15;;;;;;;33.20;26.95;;;;;;;9.56;100.00;98272.19;2088885;28;20258;-74
2021/08/26 04:02:16;;;;;;;30.53;27.17;;;;;;;9.55;100.00;98273.25;2089507;28;20215;-74
2021/08/26 04:03:17;;;;;;;29.05;25.77;;;;;;;9.58;100.00;98278.00;2088621;28;20732;-75
2021/08/26 04:04:19;;;;;;;31.23;26.70;;;;;;;9.59;100.00;98274.22;2088860;28;20237;-74
2021/08/26 04:05:19;;;;;;;34.08;27.33;;;;;;;9.57;100.00;98269.22;2088473;28;20309;-74
2021/08/26 04:06:21;;;;;;;32.77;27.40;;;;;;;9.62;100.00;98273.59;2088732;28;20226;-74
2021/08/26 04:07:22;;;;;;;35.47;26.88;;;;;;;9.62;100.00;98269.06;2080174;28;20636;-74
2021/08/26 04:08:23;;;;;;;33.30;27.50;;;;;;;9.64;100.00;98268.75;2088931;28;20248;-74
2021/08/26 04:09:25;;;;;;;34.92;27.45;;;;;;;9.66;100.00;98276.44;2089652;28;20241;-73
2021/08/26 04:10:25;;;;;;;32.90;27.73;;;;;;;9.64;100.00;98266.09;2089448;28;20250;-73
2021/08/26 04:11:27;;;;;;;35.03;26.80;;;;;;;9.67;100.00;98264.69;2089647;28;20237;-74
2021/08/26 04:12:27;;;;;;;34.35;27.73;;;;;;;9.68;100.00;98266.25;2088902;28;20258;-74
2021/08/26 04:13:29;;;;;;;37.20;28.40;;;;;;;9.69;100.00;98265.94;2088688;28;20231;-74
2021/08/26 04:14:31;;;;;;;31.80;27.80;;;;;;;9.69;100.00;98262.50;2089506;28;20246;-74
2021/08/26 04:15:32;;;;;;;37.25;29.45;;;;;;;9.72;100.00;98260.00;2088538;28;20223;-75
2021/08/26 04:16:33;;;;;;;33.53;28.23;;;;;;;9.72;100.00;98262.66;2080434;28;20605;-74
2021/08/26 04:17:35;;;;;;;33.43;27.37;;;;;;;9.74;100.00;98263.16;2088838;28;20223;-74
2021/08/26 04:18:35;;;;;;;32.47;26.92;;;;;;;9.74;100.00;98257.03;2089377;28;20229;-74
2021/08/26 04:19:37;;;;;;;34.03;26.83;;;;;;;9.77;100.00;98253.75;2089578;28;20227;-74
2021/08/26 04:20:37;;;;;;;34.28;28.23;;;;;;;9.76;100.00;98260.19;2088890;28;20253;-74
2021/08/26 04:21:39;;;;;;;32.97;27.00;;;;;;;9.77;100.00;98256.41;2089243;28;20692;-74
2021/08/26 04:22:39;;;;;;;32.10;27.50;;;;;;;9.77;100.00;98253.75;2089513;28;20225;-74
2021/08/26 04:23:41;;;;;;;35.70;27.57;;;;;;;9.77;100.00;98262.53;2088767;28;20226;-74
2021/08/26 04:24:42;;;;;;;30.90;27.60;;;;;;;9.79;100.00;98256.88;2088879;28;20234;-74
2021/08/26 04:25:43;;;;;;;34.77;27.07;;;;;;;9.78;100.00;98244.66;2089374;28;20665;-75
2021/08/26 04:26:44;;;;;;;35.03;27.92;;;;;;;9.80;100.00;98253.13;2089270;28;20728;-74
2021/08/26 04:27:46;;;;;;;32.83;27.77;;;;;;;9.81;100.00;98252.03;2088860;28;20545;-74
2021/08/26 04:28:46;;;;;;;32.10;26.98;;;;;;;9.82;100.00;98253.63;2080118;28;20223;-74
2021/08/26 04:29:49;;;;;;;37.53;26.70;;;;;;;9.80;100.00;98251.25;2088627;28;20218;-74
2021/08/26 04:30:50;;;;;;;35.50;27.30;;;;;;;9.82;100.00;98248.28;2088773;28;20219;-74
2021/08/26 04:31:51;;;;;;;33.70;27.03;;;;;;;9.83;100.00;98249.84;2089508;28;20224;-74
2021/08/26 04:32:52;;;;;;;34.00;26.50;;;;;;;9.84;100.00;98246.09;2088866;28;20245;-74
2021/08/26 04:33:53;;;;;;;33.97;27.23;;;;;;;9.85;100.00;98248.44;2089206;28;20226;-74
2021/08/26 04:34:54;;;;;;;32.45;26.48;;;;;;;9.85;100.00;98250.31;2089175;28;20226;-74
2021/08/26 04:35:55;;;;;;;34.37;27.63;;;;;;;9.83;100.00;98247.19;2089327;28;20223;-74
2021/08/26 04:36:56;;;;;;;35.30;27.38;;;;;;;9.84;100.00;98238.09;2089270;28;20656;-74
2021/08/26 04:37:58;;;;;;;29.80;26.03;;;;;;;9.85;100.00;98245.00;2088482;28;20316;-75
2021/08/26 04:38:58;;;;;;;32.15;27.17;;;;;;;9.86;100.00;98247.34;2088571;28;20318;-75
2021/08/26 04:40:00;;;;;;;30.70;27.40;;;;;;;9.86;100.00;98242.00;2089170;28;20223;-74
2021/08/26 04:41:01;;;;;;;34.92;26.88;;;;;;;9.88;100.00;98244.38;2089238;28;20280;-74
2021/08/26 04:42:02;;;;;;;33.33;27.00;;;;;;;9.90;100.00;98247.50;2089182;28;20222;-74
2021/08/26 04:43:04;;;;;;;31.13;26.92;;;;;;;9.90;100.00;98247.50;2088610;28;20710;-73
2021/08/26 04:44:06;;;;;;;33.67;27.92;;;;;;;9.90;100.00;98244.84;2088480;28;20228;-74
2021/08/26 04:45:09;;;;;;;33.95;27.15;;;;;;;9.89;100.00;98243.25;2088933;28;20690;-74
2021/08/26 04:46:12;;;;;;;30.73;26.23;;;;;;;9.91;100.00;98244.53;2089164;28;20226;-74
2021/08/26 04:47:13;;;;;;;36.10;28.13;;;;;;;9.91;100.00;98243.75;2088377;28;20333;-74